To NAV CANADA Home Page Login to a new session Search on AWWS site Feedback and Comments Disclaimer Vers la page française équivalente Tips FAQ What's new on the site To the Forecasts and Observations / NOTAM section To "File a Flight Plan" website Publications and other links Update of the User's profile FIC Telephone Numbers My Weather Data Folder Route Weather Data Regional Weather Data Local Weather Data To the Forecasts and Observations / NOTAM section
Request Generated 08/31/2016 at 21:41:26 UTC . Weather information available at that time is displayed.

METAR/TAF

QUEBEC/JEAN LESAGE INTL/QC    

SPECI CYQB 312127Z 22007KT 220V290 10SM -SHRA SCT030CB BKN070 19/17
A2978 RMK CB4AC3 CB SW SLP087 DENSITY ALT 900FT=
SPECI CYQB 312108Z 29010KT 10SM SHRA BKN030CB BKN080 21/18 A2978 RMK
CB5AC2 SLP086 DENSITY ALT 1100FT=
METAR CYQB 312100Z 28006KT 15SM -SHRA BKN025CB BKN080 22/18 A2978 RMK
CB6AC1 SLP086 DENSITY ALT 1200FT=
SPECI CYQB 312052Z 26007KT 15SM SHRA FEW020 SCT038CB BKN110 23/19
A2978 RMK SF1CB3AC4 SF TR SLP085 DENSITY ALT 1300FT=
METAR CYQB 312000Z 21011KT 15SM FEW020 FEW030CB BKN110 BKN240 24/18
A2975 RMK SF1CB2AC4CI1 SF TR CI TR CB NW SLP077 DENSITY ALT 1500FT=
METAR CYQB 311900Z 23012KT 20SM FEW025TCU SCT100 SCT240 23/18 A2977
RMK TCU2AC1CI1 SLP082 DENSITY ALT 1400FT=

TAF AMD CYQB 312031Z 3120/0118 22010KT P6SM FEW020 BKN080 TEMPO
3120/3122 VRB15G25KT 2SM TSRA BR BKN020 OVC080CB
FM312200 22008KT P6SM SCT020 BKN080 TEMPO 3122/3124 P6SM -SHRA
BKN020 BKN080
FM010000 VRB03KT P6SM SCT040 BKN080
FM010300 24005KT 6SM BR SCT060 TEMPO 0103/0109 3SM BR PROB30
0103/0109 1/2SM FG VV002
FM010900 32008KT P6SM SCT050 TEMPO 0109/0114 BKN050
FM011400 28008KT P6SM FEW020 SCT050
FM011700 28008KT P6SM BKN050 TEMPO 0117/0118 P6SM -SHRA
RMK NXT FCST BY 010000Z=
Your time UTC time
Weather data provided by Environment Canada and NAV CANADA